sensor_id;sensor_type;location;lat;lon;timestamp;P1;durP1;ratioP1;P2;durP2;ratioP2
72856;SDS011;62742;52.136;4.500;2023-03-01T00:01:19;28.15;;;15.82;;
72856;SDS011;62742;52.136;4.500;2023-03-01T00:03:49;26.77;;;14.68;;
72856;SDS011;62742;52.136;4.500;2023-03-01T00:06:16;29.13;;;15.45;;
72856;SDS011;62742;52.136;4.500;2023-03-01T00:08:44;28.50;;;15.40;;
72856;SDS011;62742;52.136;4.500;2023-03-01T00:11:12;28.42;;;15.15;;
72856;SDS011;62742;52.136;4.500;2023-03-01T00:13:43;28.05;;;15.35;;
72856;SDS011;62742;52.136;4.500;2023-03-01T00:16:18;32.92;;;17.23;;
72856;SDS011;62742;52.136;4.500;2023-03-01T00:18:51;32.72;;;17.50;;
72856;SDS011;62742;52.136;4.500;2023-03-01T00:21:20;29.50;;;15.52;;
72856;SDS011;62742;52.136;4.500;2023-03-01T00:23:48;31.70;;;17.00;;
72856;SDS011;62742;52.136;4.500;2023-03-01T00:26:16;31.45;;;16.92;;
72856;SDS011;62742;52.136;4.500;2023-03-01T00:28:45;36.65;;;18.10;;
72856;SDS011;62742;52.136;4.500;2023-03-01T00:31:14;33.58;;;18.05;;
72856;SDS011;62742;52.136;4.500;2023-03-01T00:33:44;35.00;;;17.80;;
72856;SDS011;62742;52.136;4.500;2023-03-01T00:36:13;41.03;;;17.60;;
72856;SDS011;62742;52.136;4.500;2023-03-01T00:38:42;35.83;;;18.75;;
72856;SDS011;62742;52.136;4.500;2023-03-01T00:41:12;34.03;;;17.27;;
72856;SDS011;62742;52.136;4.500;2023-03-01T00:43:43;33.85;;;17.92;;
72856;SDS011;62742;52.136;4.500;2023-03-01T00:46:12;32.80;;;16.98;;
72856;SDS011;62742;52.136;4.500;2023-03-01T00:48:42;38.88;;;19.05;;
72856;SDS011;62742;52.136;4.500;2023-03-01T00:51:10;39.30;;;18.33;;
72856;SDS011;62742;52.136;4.500;2023-03-01T00:53:40;48.90;;;21.25;;
72856;SDS011;62742;52.136;4.500;2023-03-01T00:56:08;36.38;;;18.52;;
72856;SDS011;62742;52.136;4.500;2023-03-01T00:58:38;44.78;;;20.35;;
72856;SDS011;62742;52.136;4.500;2023-03-01T01:01:09;40.97;;;20.55;;
72856;SDS011;62742;52.136;4.500;2023-03-01T01:03:55;39.88;;;19.33;;
72856;SDS011;62742;52.136;4.500;2023-03-01T01:06:33;43.35;;;20.88;;
72856;SDS011;62742;52.136;4.500;2023-03-01T01:09:08;43.55;;;21.40;;
72856;SDS011;62742;52.136;4.500;2023-03-01T01:11:45;40.73;;;19.50;;
72856;SDS011;62742;52.136;4.500;2023-03-01T01:14:15;46.78;;;21.65;;
72856;SDS011;62742;52.136;4.500;2023-03-01T01:16:43;42.78;;;21.20;;
72856;SDS011;62742;52.136;4.500;2023-03-01T01:19:10;53.03;;;24.17;;
72856;SDS011;62742;52.136;4.500;2023-03-01T01:21:37;56.08;;;24.50;;
72856;SDS011;62742;52.136;4.500;2023-03-01T01:24:04;55.80;;;25.88;;
72856;SDS011;62742;52.136;4.500;2023-03-01T01:26:32;43.70;;;20.55;;
72856;SDS011;62742;52.136;4.500;2023-03-01T01:29:01;63.47;;;25.85;;
72856;SDS011;62742;52.136;4.500;2023-03-01T01:31:30;55.75;;;24.42;;
72856;SDS011;62742;52.136;4.500;2023-03-01T01:33:59;49.83;;;22.77;;
72856;SDS011;62742;52.136;4.500;2023-03-01T01:36:28;55.88;;;23.70;;
72856;SDS011;62742;52.136;4.500;2023-03-01T01:38:55;55.95;;;25.17;;
72856;SDS011;62742;52.136;4.500;2023-03-01T01:41:22;35.10;;;18.08;;
72856;SDS011;62742;52.136;4.500;2023-03-01T01:46:48;40.42;;;18.63;;
72856;SDS011;62742;52.136;4.500;2023-03-01T01:52:35;55.85;;;24.60;;
72856;SDS011;62742;52.136;4.500;2023-03-01T01:55:07;52.08;;;24.13;;
72856;SDS011;62742;52.136;4.500;2023-03-01T01:57:42;50.83;;;20.85;;
72856;SDS011;62742;52.136;4.500;2023-03-01T02:00:14;41.58;;;19.70;;
72856;SDS011;62742;52.136;4.500;2023-03-01T02:02:46;64.03;;;25.45;;
72856;SDS011;62742;52.136;4.500;2023-03-01T02:05:20;68.85;;;29.20;;
72856;SDS011;62742;52.136;4.500;2023-03-01T02:08:00;69.75;;;27.88;;
72856;SDS011;62742;52.136;4.500;2023-03-01T02:10:28;74.20;;;28.50;;
72856;SDS011;62742;52.136;4.500;2023-03-01T02:13:00;76.78;;;29.27;;
72856;SDS011;62742;52.136;4.500;2023-03-01T02:15:31;83.63;;;32.03;;
72856;SDS011;62742;52.136;4.500;2023-03-01T02:18:01;81.03;;;32.28;;
72856;SDS011;62742;52.136;4.500;2023-03-01T02:23:19;63.80;;;27.45;;
72856;SDS011;62742;52.136;4.500;2023-03-01T02:26:34;51.67;;;23.33;;
72856;SDS011;62742;52.136;4.500;2023-03-01T02:28:46;78.68;;;30.80;;
72856;SDS011;62742;52.136;4.500;2023-03-01T02:31:17;83.13;;;31.25;;
72856;SDS011;62742;52.136;4.500;2023-03-01T02:34:05;90.72;;;33.58;;
72856;SDS011;62742;52.136;4.500;2023-03-01T02:36:35;107.18;;;35.78;;
72856;SDS011;62742;52.136;4.500;2023-03-01T02:39:08;74.35;;;29.83;;
72856;SDS011;62742;52.136;4.500;2023-03-01T02:41:44;112.93;;;39.90;;
72856;SDS011;62742;52.136;4.500;2023-03-01T02:44:17;87.05;;;34.58;;
72856;SDS011;62742;52.136;4.500;2023-03-01T02:46:45;88.15;;;33.35;;
72856;SDS011;62742;52.136;4.500;2023-03-01T02:49:23;70.35;;;29.80;;
72856;SDS011;62742;52.136;4.500;2023-03-01T02:55:06;103.30;;;35.78;;
72856;SDS011;62742;52.136;4.500;2023-03-01T02:57:43;85.78;;;32.50;;
72856;SDS011;62742;52.136;4.500;2023-03-01T03:00:21;67.85;;;28.70;;
72856;SDS011;62742;52.136;4.500;2023-03-01T03:02:53;84.97;;;32.47;;
72856;SDS011;62742;52.136;4.500;2023-03-01T03:05:25;58.17;;;26.60;;
72856;SDS011;62742;52.136;4.500;2023-03-01T03:07:55;54.05;;;24.05;;
72856;SDS011;62742;52.136;4.500;2023-03-01T03:10:28;65.75;;;29.50;;
72856;SDS011;62742;52.136;4.500;2023-03-01T03:13:01;82.47;;;32.33;;
72856;SDS011;62742;52.136;4.500;2023-03-01T03:15:31;69.10;;;28.55;;
72856;SDS011;62742;52.136;4.500;2023-03-01T03:18:02;102.88;;;36.92;;
72856;SDS011;62742;52.136;4.500;2023-03-01T03:20:32;68.57;;;30.73;;
72856;SDS011;62742;52.136;4.500;2023-03-01T03:23:00;88.63;;;34.25;;
72856;SDS011;62742;52.136;4.500;2023-03-01T03:25:27;119.70;;;39.05;;
72856;SDS011;62742;52.136;4.500;2023-03-01T03:27:56;153.13;;;46.92;;
72856;SDS011;62742;52.136;4.500;2023-03-01T03:30:25;107.47;;;38.05;;
72856;SDS011;62742;52.136;4.500;2023-03-01T03:32:55;138.93;;;42.67;;
72856;SDS011;62742;52.136;4.500;2023-03-01T03:35:28;100.90;;;34.70;;
72856;SDS011;62742;52.136;4.500;2023-03-01T03:37:58;126.85;;;39.42;;
72856;SDS011;62742;52.136;4.500;2023-03-01T03:40:38;174.73;;;50.13;;
72856;SDS011;62742;52.136;4.500;2023-03-01T03:43:08;144.13;;;42.78;;
72856;SDS011;62742;52.136;4.500;2023-03-01T03:45:43;99.35;;;35.80;;
72856;SDS011;62742;52.136;4.500;2023-03-01T03:48:11;98.25;;;35.97;;
72856;SDS011;62742;52.136;4.500;2023-03-01T03:50:39;131.85;;;39.50;;
72856;SDS011;62742;52.136;4.500;2023-03-01T03:53:07;112.22;;;37.38;;
72856;SDS011;62742;52.136;4.500;2023-03-01T03:55:38;138.02;;;44.97;;
72856;SDS011;62742;52.136;4.500;2023-03-01T03:58:06;79.10;;;31.65;;
72856;SDS011;62742;52.136;4.500;2023-03-01T04:00:36;120.03;;;39.33;;
72856;SDS011;62742;52.136;4.500;2023-03-01T04:03:06;198.85;;;51.20;;
72856;SDS011;62742;52.136;4.500;2023-03-01T04:05:33;209.10;;;52.53;;
72856;SDS011;62742;52.136;4.500;2023-03-01T04:08:01;206.65;;;52.22;;
72856;SDS011;62742;52.136;4.500;2023-03-01T04:10:36;225.93;;;55.15;;
72856;SDS011;62742;52.136;4.500;2023-03-01T04:13:11;179.65;;;48.15;;
72856;SDS011;62742;52.136;4.500;2023-03-01T04:15:41;133.00;;;41.08;;
72856;SDS011;62742;52.136;4.500;2023-03-01T04:18:12;187.93;;;50.70;;
72856;SDS011;62742;52.136;4.500;2023-03-01T04:20:41;135.07;;;42.38;;
72856;SDS011;62742;52.136;4.500;2023-03-01T04:23:14;206.80;;;52.22;;
72856;SDS011;62742;52.136;4.500;2023-03-01T04:25:48;108.75;;;40.40;;
72856;SDS011;62742;52.136;4.500;2023-03-01T04:28:26;382.10;;;65.57;;
72856;SDS011;62742;52.136;4.500;2023-03-01T04:33:40;114.68;;;39.47;;
72856;SDS011;62742;52.136;4.500;2023-03-01T04:36:20;138.80;;;42.15;;
72856;SDS011;62742;52.136;4.500;2023-03-01T04:38:50;98.43;;;36.58;;
72856;SDS011;62742;52.136;4.500;2023-03-01T04:41:18;78.28;;;29.73;;
72856;SDS011;62742;52.136;4.500;2023-03-01T04:43:47;251.60;;;49.20;;
72856;SDS011;62742;52.136;4.500;2023-03-01T04:46:15;255.55;;;52.80;;
72856;SDS011;62742;52.136;4.500;2023-03-01T04:48:45;177.52;;;47.55;;
72856;SDS011;62742;52.136;4.500;2023-03-01T04:51:13;184.68;;;49.17;;
72856;SDS011;62742;52.136;4.500;2023-03-01T04:53:40;102.78;;;35.78;;
72856;SDS011;62742;52.136;4.500;2023-03-01T04:56:09;166.65;;;36.78;;
72856;SDS011;62742;52.136;4.500;2023-03-01T04:58:36;746.28;;;107.40;;
72856;SDS011;62742;52.136;4.500;2023-03-01T05:01:07;804.20;;;108.75;;
72856;SDS011;62742;52.136;4.500;2023-03-01T05:03:52;376.83;;;62.47;;
72856;SDS011;62742;52.136;4.500;2023-03-01T05:06:19;428.42;;;63.38;;
72856;SDS011;62742;52.136;4.500;2023-03-01T05:08:46;251.85;;;47.05;;
72856;SDS011;62742;52.136;4.500;2023-03-01T05:11:13;393.80;;;59.97;;
72856;SDS011;62742;52.136;4.500;2023-03-01T05:13:40;790.35;;;97.78;;
72856;SDS011;62742;52.136;4.500;2023-03-01T05:16:08;378.77;;;53.50;;
72856;SDS011;62742;52.136;4.500;2023-03-01T05:18:38;621.72;;;75.22;;
72856;SDS011;62742;52.136;4.500;2023-03-01T05:21:10;424.33;;;60.78;;
72856;SDS011;62742;52.136;4.500;2023-03-01T05:23:41;584.80;;;70.25;;
72856;SDS011;62742;52.136;4.500;2023-03-01T05:26:08;802.80;;;99.35;;
72856;SDS011;62742;52.136;4.500;2023-03-01T05:28:35;544.17;;;70.82;;
72856;SDS011;62742;52.136;4.500;2023-03-01T05:31:03;576.80;;;72.05;;
72856;SDS011;62742;52.136;4.500;2023-03-01T05:33:39;497.20;;;71.05;;
72856;SDS011;62742;52.136;4.500;2023-03-01T05:36:07;333.95;;;59.38;;
72856;SDS011;62742;52.136;4.500;2023-03-01T05:38:35;181.55;;;42.72;;
72856;SDS011;62742;52.136;4.500;2023-03-01T05:41:02;301.85;;;59.53;;
72856;SDS011;62742;52.136;4.500;2023-03-01T05:43:33;213.93;;;41.35;;
72856;SDS011;62742;52.136;4.500;2023-03-01T05:45:59;98.07;;;30.05;;
72856;SDS011;62742;52.136;4.500;2023-03-01T05:48:26;183.13;;;42.20;;
72856;SDS011;62742;52.136;4.500;2023-03-01T05:50:52;146.80;;;40.33;;
72856;SDS011;62742;52.136;4.500;2023-03-01T05:55:49;341.23;;;59.40;;
72856;SDS011;62742;52.136;4.500;2023-03-01T05:58:17;340.25;;;58.75;;
72856;SDS011;62742;52.136;4.500;2023-03-01T06:00:46;153.43;;;37.35;;
72856;SDS011;62742;52.136;4.500;2023-03-01T06:03:14;153.23;;;42.58;;
72856;SDS011;62742;52.136;4.500;2023-03-01T06:05:43;97.68;;;35.05;;
72856;SDS011;62742;52.136;4.500;2023-03-01T06:08:11;109.95;;;38.20;;
72856;SDS011;62742;52.136;4.500;2023-03-01T06:10:38;112.78;;;36.92;;
72856;SDS011;62742;52.136;4.500;2023-03-01T06:13:07;99.05;;;36.55;;
72856;SDS011;62742;52.136;4.500;2023-03-01T06:15:33;73.45;;;29.63;;
72856;SDS011;62742;52.136;4.500;2023-03-01T06:18:00;85.85;;;33.78;;
72856;SDS011;62742;52.136;4.500;2023-03-01T06:20:27;93.70;;;33.60;;
72856;SDS011;62742;52.136;4.500;2023-03-01T06:22:55;148.32;;;45.88;;
72856;SDS011;62742;52.136;4.500;2023-03-01T06:25:23;85.00;;;33.15;;
72856;SDS011;62742;52.136;4.500;2023-03-01T06:27:51;94.60;;;35.28;;
72856;SDS011;62742;52.136;4.500;2023-03-01T06:30:21;117.97;;;40.38;;
72856;SDS011;62742;52.136;4.500;2023-03-01T06:32:50;108.40;;;38.70;;
72856;SDS011;62742;52.136;4.500;2023-03-01T06:35:17;105.78;;;37.50;;
72856;SDS011;62742;52.136;4.500;2023-03-01T06:37:45;132.20;;;44.15;;
72856;SDS011;62742;52.136;4.500;2023-03-01T06:40:14;97.72;;;33.13;;
72856;SDS011;62742;52.136;4.500;2023-03-01T06:42:42;113.95;;;39.00;;
72856;SDS011;62742;52.136;4.500;2023-03-01T06:45:15;116.18;;;40.08;;
72856;SDS011;62742;52.136;4.500;2023-03-01T06:47:42;81.50;;;32.92;;
72856;SDS011;62742;52.136;4.500;2023-03-01T06:52:36;86.90;;;34.10;;
72856;SDS011;62742;52.136;4.500;2023-03-01T06:55:02;131.13;;;43.72;;
72856;SDS011;62742;52.136;4.500;2023-03-01T06:57:31;123.40;;;43.97;;
72856;SDS011;62742;52.136;4.500;2023-03-01T06:59:58;121.07;;;42.50;;
72856;SDS011;62742;52.136;4.500;2023-03-01T07:02:24;118.78;;;38.92;;
72856;SDS011;62742;52.136;4.500;2023-03-01T07:07:18;103.35;;;36.60;;
72856;SDS011;62742;52.136;4.500;2023-03-01T07:09:45;99.30;;;36.70;;
72856;SDS011;62742;52.136;4.500;2023-03-01T07:12:14;101.05;;;38.40;;
72856;SDS011;62742;52.136;4.500;2023-03-01T07:17:06;108.50;;;38.00;;
72856;SDS011;62742;52.136;4.500;2023-03-01T07:19:33;111.82;;;40.13;;
72856;SDS011;62742;52.136;4.500;2023-03-01T07:24:25;81.85;;;31.23;;
72856;SDS011;62742;52.136;4.500;2023-03-01T07:26:52;110.57;;;39.50;;
72856;SDS011;62742;52.136;4.500;2023-03-01T07:29:19;86.47;;;35.03;;
72856;SDS011;62742;52.136;4.500;2023-03-01T07:34:12;83.10;;;33.92;;
72856;SDS011;62742;52.136;4.500;2023-03-01T07:39:05;81.20;;;32.83;;
72856;SDS011;62742;52.136;4.500;2023-03-01T07:43:57;114.97;;;40.55;;
72856;SDS011;62742;52.136;4.500;2023-03-01T07:48:50;108.80;;;39.28;;
72856;SDS011;62742;52.136;4.500;2023-03-01T07:53:45;134.30;;;46.55;;
72856;SDS011;62742;52.136;4.500;2023-03-01T07:56:14;115.47;;;44.80;;
72856;SDS011;62742;52.136;4.500;2023-03-01T07:58:44;134.40;;;48.25;;
72856;SDS011;62742;52.136;4.500;2023-03-01T08:01:12;128.57;;;47.03;;
72856;SDS011;62742;52.136;4.500;2023-03-01T08:03:42;168.48;;;55.40;;
72856;SDS011;62742;52.136;4.500;2023-03-01T08:06:10;131.70;;;51.33;;
72856;SDS011;62742;52.136;4.500;2023-03-01T08:08:38;193.32;;;54.35;;
72856;SDS011;62742;52.136;4.500;2023-03-01T08:11:06;112.10;;;43.28;;
72856;SDS011;62742;52.136;4.500;2023-03-01T08:13:35;84.00;;;37.10;;
72856;SDS011;62742;52.136;4.500;2023-03-01T08:18:31;57.60;;;28.77;;
72856;SDS011;62742;52.136;4.500;2023-03-01T08:21:04;51.42;;;26.48;;
72856;SDS011;62742;52.136;4.500;2023-03-01T08:23:34;48.28;;;25.92;;
72856;SDS011;62742;52.136;4.500;2023-03-01T08:26:04;56.90;;;27.52;;
72856;SDS011;62742;52.136;4.500;2023-03-01T08:28:44;49.65;;;26.27;;
72856;SDS011;62742;52.136;4.500;2023-03-01T08:31:19;46.67;;;23.63;;
72856;SDS011;62742;52.136;4.500;2023-03-01T08:33:51;39.70;;;22.23;;
72856;SDS011;62742;52.136;4.500;2023-03-01T08:36:30;45.38;;;23.30;;
72856;SDS011;62742;52.136;4.500;2023-03-01T08:39:10;49.05;;;24.60;;
72856;SDS011;62742;52.136;4.500;2023-03-01T08:41:42;51.22;;;26.48;;
72856;SDS011;62742;52.136;4.500;2023-03-01T08:46:38;47.25;;;25.23;;
72856;SDS011;62742;52.136;4.500;2023-03-01T08:49:08;50.10;;;24.58;;
72856;SDS011;62742;52.136;4.500;2023-03-01T08:51:41;41.70;;;23.00;;
72856;SDS011;62742;52.136;4.500;2023-03-01T08:54:26;45.58;;;23.63;;
72856;SDS011;62742;52.136;4.500;2023-03-01T08:56:52;46.05;;;25.23;;
72856;SDS011;62742;52.136;4.500;2023-03-01T08:59:19;46.53;;;25.65;;
72856;SDS011;62742;52.136;4.500;2023-03-01T09:01:45;48.22;;;26.20;;
72856;SDS011;62742;52.136;4.500;2023-03-01T09:04:12;48.20;;;25.13;;
72856;SDS011;62742;52.136;4.500;2023-03-01T09:06:40;48.70;;;26.10;;
72856;SDS011;62742;52.136;4.500;2023-03-01T09:11:40;44.95;;;24.13;;
72856;SDS011;62742;52.136;4.500;2023-03-01T09:14:08;44.40;;;24.35;;
72856;SDS011;62742;52.136;4.500;2023-03-01T09:16:35;43.63;;;23.83;;
72856;SDS011;62742;52.136;4.500;2023-03-01T09:19:02;42.28;;;22.38;;
72856;SDS011;62742;52.136;4.500;2023-03-01T09:21:29;36.70;;;20.85;;
72856;SDS011;62742;52.136;4.500;2023-03-01T09:23:56;35.72;;;21.42;;
72856;SDS011;62742;52.136;4.500;2023-03-01T09:26:24;41.15;;;21.63;;
72856;SDS011;62742;52.136;4.500;2023-03-01T09:28:52;36.10;;;21.35;;
72856;SDS011;62742;52.136;4.500;2023-03-01T09:31:22;37.65;;;22.08;;
72856;SDS011;62742;52.136;4.500;2023-03-01T09:33:52;38.53;;;23.13;;
72856;SDS011;62742;52.136;4.500;2023-03-01T09:36:21;38.17;;;22.05;;
72856;SDS011;62742;52.136;4.500;2023-03-01T09:38:51;36.72;;;21.65;;
72856;SDS011;62742;52.136;4.500;2023-03-01T09:44:34;33.40;;;18.85;;
72856;SDS011;62742;52.136;4.500;2023-03-01T09:47:22;34.08;;;18.95;;
72856;SDS011;62742;52.136;4.500;2023-03-01T09:53:01;27.33;;;16.05;;
72856;SDS011;62742;52.136;4.500;2023-03-01T09:55:37;32.67;;;17.60;;
72856;SDS011;62742;52.136;4.500;2023-03-01T09:58:59;28.67;;;16.73;;
72856;SDS011;62742;52.136;4.500;2023-03-01T10:06:29;24.77;;;14.15;;
72856;SDS011;62742;52.136;4.500;2023-03-01T10:08:58;23.85;;;13.73;;
72856;SDS011;62742;52.136;4.500;2023-03-01T10:11:37;21.73;;;13.70;;
72856;SDS011;62742;52.136;4.500;2023-03-01T10:19:46;27.77;;;16.88;;
72856;SDS011;62742;52.136;4.500;2023-03-01T10:22:17;30.77;;;17.67;;
72856;SDS011;62742;52.136;4.500;2023-03-01T10:24:48;26.63;;;16.30;;
72856;SDS011;62742;52.136;4.500;2023-03-01T10:27:24;29.50;;;16.20;;
72856;SDS011;62742;52.136;4.500;2023-03-01T10:32:53;27.65;;;16.40;;
72856;SDS011;62742;52.136;4.500;2023-03-01T10:40:49;23.10;;;15.13;;
72856;SDS011;62742;52.136;4.500;2023-03-01T10:43:20;29.60;;;18.63;;
72856;SDS011;62742;52.136;4.500;2023-03-01T10:45:49;30.02;;;18.52;;
72856;SDS011;62742;52.136;4.500;2023-03-01T10:51:15;25.00;;;15.43;;
72856;SDS011;62742;52.136;4.500;2023-03-01T10:53:49;25.88;;;15.15;;
72856;SDS011;62742;52.136;4.500;2023-03-01T10:56:17;31.73;;;19.45;;
72856;SDS011;62742;52.136;4.500;2023-03-01T10:59:00;27.05;;;16.05;;
72856;SDS011;62742;52.136;4.500;2023-03-01T11:01:31;28.30;;;17.73;;
72856;SDS011;62742;52.136;4.500;2023-03-01T11:04:10;28.88;;;17.80;;
72856;SDS011;62742;52.136;4.500;2023-03-01T11:06:40;35.08;;;20.77;;
72856;SDS011;62742;52.136;4.500;2023-03-01T11:11:44;24.52;;;15.15;;
72856;SDS011;62742;52.136;4.500;2023-03-01T11:14:20;22.55;;;14.00;;
72856;SDS011;62742;52.136;4.500;2023-03-01T11:17:03;26.10;;;14.85;;
72856;SDS011;62742;52.136;4.500;2023-03-01T11:19:39;25.10;;;14.25;;
72856;SDS011;62742;52.136;4.500;2023-03-01T11:24:46;28.58;;;16.67;;
72856;SDS011;62742;52.136;4.500;2023-03-01T11:27:22;29.10;;;16.25;;
72856;SDS011;62742;52.136;4.500;2023-03-01T11:32:42;19.23;;;11.63;;
72856;SDS011;62742;52.136;4.500;2023-03-01T11:35:23;26.25;;;14.23;;
72856;SDS011;62742;52.136;4.500;2023-03-01T11:43:33;21.80;;;13.05;;
72856;SDS011;62742;52.136;4.500;2023-03-01T11:52:39;24.15;;;14.60;;
72856;SDS011;62742;52.136;4.500;2023-03-01T11:55:29;23.63;;;13.27;;
72856;SDS011;62742;52.136;4.500;2023-03-01T12:10:26;16.67;;;9.82;;
72856;SDS011;62742;52.136;4.500;2023-03-01T12:15:41;16.45;;;9.55;;
72856;SDS011;62742;52.136;4.500;2023-03-01T12:18:41;18.20;;;9.57;;
72856;SDS011;62742;52.136;4.500;2023-03-01T12:21:55;16.02;;;9.38;;
72856;SDS011;62742;52.136;4.500;2023-03-01T12:28:19;17.70;;;10.80;;
72856;SDS011;62742;52.136;4.500;2023-03-01T12:31:13;18.92;;;11.50;;
72856;SDS011;62742;52.136;4.500;2023-03-01T12:43:17;20.50;;;11.98;;
72856;SDS011;62742;52.136;4.500;2023-03-01T12:51:15;17.60;;;11.23;;
72856;SDS011;62742;52.136;4.500;2023-03-01T12:53:53;22.45;;;11.95;;
72856;SDS011;62742;52.136;4.500;2023-03-01T12:56:24;19.42;;;11.18;;
72856;SDS011;62742;52.136;4.500;2023-03-01T12:59:02;18.77;;;10.88;;
72856;SDS011;62742;52.136;4.500;2023-03-01T13:02:25;20.77;;;11.45;;
72856;SDS011;62742;52.136;4.500;2023-03-01T13:05:23;19.80;;;10.80;;
72856;SDS011;62742;52.136;4.500;2023-03-01T13:08:20;17.67;;;10.18;;
72856;SDS011;62742;52.136;4.500;2023-03-01T13:11:00;21.17;;;10.85;;
72856;SDS011;62742;52.136;4.500;2023-03-01T13:13:30;19.85;;;10.70;;
72856;SDS011;62742;52.136;4.500;2023-03-01T13:15:57;19.30;;;10.82;;
72856;SDS011;62742;52.136;4.500;2023-03-01T13:19:12;18.73;;;10.13;;
72856;SDS011;62742;52.136;4.500;2023-03-01T13:21:43;19.00;;;10.50;;
72856;SDS011;62742;52.136;4.500;2023-03-01T13:29:55;16.85;;;9.85;;
72856;SDS011;62742;52.136;4.500;2023-03-01T13:32:32;16.65;;;9.55;;
72856;SDS011;62742;52.136;4.500;2023-03-01T13:37:45;17.48;;;9.50;;
72856;SDS011;62742;52.136;4.500;2023-03-01T13:42:48;15.10;;;8.60;;
72856;SDS011;62742;52.136;4.500;2023-03-01T13:48:11;16.02;;;9.40;;
72856;SDS011;62742;52.136;4.500;2023-03-01T13:51:13;17.00;;;9.32;;
72856;SDS011;62742;52.136;4.500;2023-03-01T13:53:41;15.35;;;8.98;;
72856;SDS011;62742;52.136;4.500;2023-03-01T13:56:13;16.70;;;8.93;;
72856;SDS011;62742;52.136;4.500;2023-03-01T13:59:02;18.48;;;8.65;;
72856;SDS011;62742;52.136;4.500;2023-03-01T14:01:39;15.38;;;8.90;;
72856;SDS011;62742;52.136;4.500;2023-03-01T14:04:20;14.35;;;8.85;;
72856;SDS011;62742;52.136;4.500;2023-03-01T14:06:51;16.30;;;8.85;;
72856;SDS011;62742;52.136;4.500;2023-03-01T14:09:35;15.77;;;9.20;;
72856;SDS011;62742;52.136;4.500;2023-03-01T14:15:27;15.88;;;8.75;;
72856;SDS011;62742;52.136;4.500;2023-03-01T14:20:53;19.30;;;9.15;;
72856;SDS011;62742;52.136;4.500;2023-03-01T14:23:21;17.33;;;9.50;;
72856;SDS011;62742;52.136;4.500;2023-03-01T14:25:51;16.42;;;9.70;;
72856;SDS011;62742;52.136;4.500;2023-03-01T14:28:21;15.48;;;8.43;;
72856;SDS011;62742;52.136;4.500;2023-03-01T14:30:54;14.25;;;8.05;;
72856;SDS011;62742;52.136;4.500;2023-03-01T14:33:26;17.17;;;8.90;;
72856;SDS011;62742;52.136;4.500;2023-03-01T14:36:06;15.15;;;8.32;;
72856;SDS011;62742;52.136;4.500;2023-03-01T14:38:37;15.32;;;9.00;;
72856;SDS011;62742;52.136;4.500;2023-03-01T14:41:15;13.60;;;8.05;;
72856;SDS011;62742;52.136;4.500;2023-03-01T14:43:52;15.52;;;7.85;;
72856;SDS011;62742;52.136;4.500;2023-03-01T14:46:37;16.67;;;8.63;;
72856;SDS011;62742;52.136;4.500;2023-03-01T14:49:09;15.90;;;8.48;;
72856;SDS011;62742;52.136;4.500;2023-03-01T14:51:46;13.70;;;7.85;;
72856;SDS011;62742;52.136;4.500;2023-03-01T14:57:18;14.93;;;7.85;;
72856;SDS011;62742;52.136;4.500;2023-03-01T14:59:52;12.88;;;7.03;;
72856;SDS011;62742;52.136;4.500;2023-03-01T15:02:24;11.98;;;6.60;;
72856;SDS011;62742;52.136;4.500;2023-03-01T15:05:01;15.98;;;7.88;;
72856;SDS011;62742;52.136;4.500;2023-03-01T15:07:31;15.02;;;7.80;;
72856;SDS011;62742;52.136;4.500;2023-03-01T15:10:03;15.73;;;8.73;;
72856;SDS011;62742;52.136;4.500;2023-03-01T15:12:35;17.75;;;8.40;;
72856;SDS011;62742;52.136;4.500;2023-03-01T15:18:22;15.60;;;8.07;;
72856;SDS011;62742;52.136;4.500;2023-03-01T15:20:55;13.50;;;8.00;;
72856;SDS011;62742;52.136;4.500;2023-03-01T15:23:31;14.17;;;7.13;;
72856;SDS011;62742;52.136;4.500;2023-03-01T15:26:03;16.63;;;7.78;;
72856;SDS011;62742;52.136;4.500;2023-03-01T15:28:31;13.82;;;7.43;;
72856;SDS011;62742;52.136;4.500;2023-03-01T15:31:05;13.35;;;7.55;;
72856;SDS011;62742;52.136;4.500;2023-03-01T15:33:50;13.67;;;7.23;;
72856;SDS011;62742;52.136;4.500;2023-03-01T15:39:05;12.73;;;6.80;;
72856;SDS011;62742;52.136;4.500;2023-03-01T15:42:07;12.85;;;6.90;;
72856;SDS011;62742;52.136;4.500;2023-03-01T15:47:58;12.07;;;6.20;;
72856;SDS011;62742;52.136;4.500;2023-03-01T15:50:41;12.15;;;6.63;;
72856;SDS011;62742;52.136;4.500;2023-03-01T15:53:12;11.88;;;6.43;;
72856;SDS011;62742;52.136;4.500;2023-03-01T15:55:41;11.82;;;6.47;;
72856;SDS011;62742;52.136;4.500;2023-03-01T15:58:19;13.02;;;6.35;;
72856;SDS011;62742;52.136;4.500;2023-03-01T16:00:49;15.30;;;6.65;;
72856;SDS011;62742;52.136;4.500;2023-03-01T16:03:22;12.55;;;6.60;;
72856;SDS011;62742;52.136;4.500;2023-03-01T16:05:49;13.23;;;6.80;;
72856;SDS011;62742;52.136;4.500;2023-03-01T16:08:17;15.88;;;7.25;;
72856;SDS011;62742;52.136;4.500;2023-03-01T16:10:44;12.20;;;7.13;;
72856;SDS011;62742;52.136;4.500;2023-03-01T16:13:12;12.65;;;7.05;;
72856;SDS011;62742;52.136;4.500;2023-03-01T16:15:39;12.45;;;7.28;;
72856;SDS011;62742;52.136;4.500;2023-03-01T16:18:06;13.95;;;7.43;;
72856;SDS011;62742;52.136;4.500;2023-03-01T16:20:36;14.30;;;7.15;;
72856;SDS011;62742;52.136;4.500;2023-03-01T16:23:04;13.45;;;7.35;;
72856;SDS011;62742;52.136;4.500;2023-03-01T16:25:33;12.82;;;7.20;;
72856;SDS011;62742;52.136;4.500;2023-03-01T16:28:01;11.57;;;6.25;;
72856;SDS011;62742;52.136;4.500;2023-03-01T16:30:34;10.93;;;6.40;;
72856;SDS011;62742;52.136;4.500;2023-03-01T16:33:01;13.38;;;6.47;;
72856;SDS011;62742;52.136;4.500;2023-03-01T16:35:33;11.35;;;6.03;;
72856;SDS011;62742;52.136;4.500;2023-03-01T16:38:06;10.13;;;5.40;;
72856;SDS011;62742;52.136;4.500;2023-03-01T16:40:33;12.88;;;6.07;;
72856;SDS011;62742;52.136;4.500;2023-03-01T16:42:59;12.65;;;6.47;;
72856;SDS011;62742;52.136;4.500;2023-03-01T16:45:27;13.18;;;6.50;;
72856;SDS011;62742;52.136;4.500;2023-03-01T16:48:00;13.35;;;6.70;;
72856;SDS011;62742;52.136;4.500;2023-03-01T16:50:27;12.18;;;6.43;;
72856;SDS011;62742;52.136;4.500;2023-03-01T16:52:54;12.80;;;6.00;;
72856;SDS011;62742;52.136;4.500;2023-03-01T16:55:20;12.80;;;6.93;;
72856;SDS011;62742;52.136;4.500;2023-03-01T16:57:47;14.02;;;6.85;;
72856;SDS011;62742;52.136;4.500;2023-03-01T17:02:40;11.88;;;6.18;;
72856;SDS011;62742;52.136;4.500;2023-03-01T17:05:08;12.48;;;5.80;;
72856;SDS011;62742;52.136;4.500;2023-03-01T17:07:37;11.88;;;6.45;;
72856;SDS011;62742;52.136;4.500;2023-03-01T17:10:05;11.32;;;6.45;;
72856;SDS011;62742;52.136;4.500;2023-03-01T17:12:35;11.88;;;6.30;;
72856;SDS011;62742;52.136;4.500;2023-03-01T17:15:03;14.63;;;6.80;;
72856;SDS011;62742;52.136;4.500;2023-03-01T17:17:31;14.80;;;6.97;;
72856;SDS011;62742;52.136;4.500;2023-03-01T17:19:58;11.38;;;6.38;;
72856;SDS011;62742;52.136;4.500;2023-03-01T17:22:24;13.43;;;6.75;;
72856;SDS011;62742;52.136;4.500;2023-03-01T17:24:51;13.30;;;6.90;;
72856;SDS011;62742;52.136;4.500;2023-03-01T17:27:17;17.02;;;6.57;;
72856;SDS011;62742;52.136;4.500;2023-03-01T17:29:44;11.90;;;6.72;;
72856;SDS011;62742;52.136;4.500;2023-03-01T17:32:11;16.90;;;7.25;;